• Join FlightAware (Why Join?)
  • Login
  • US Flag 
10:29AM EDT


 

Airport Tracker/Info


-or-


 

Live Flight TrackerFlight Track Log ✈ N7304T ✈ 05-Jul-2013 ✈ KLBE - KCDW

Flight Track Log - Related Links

Times and Time Zones

All times are in EDT time to prevent confusion due to time zone crossing. See the N7304T flight status page for this flight to view local times or setup timezone preferences in your user account.

Time Position Orientation Groundspeed Altitude Reporting Facility
EDT Latitude Longitude Course Direction KTS MPH feet Rate Location/Type
01:33PM 40.2356 -79.3347 80° East 117 135 4,000  Level Cleveland Center
01:34PM 40.2308 -79.2967 99° East 115 132 4,700 660 Climbing Cleveland Center
01:35PM 40.2181 -79.2589 114° Southeast 116 133 5,400 660 Climbing Cleveland Center
01:36PM 40.2092 -79.2183 106° East 109 125 6,100 720 Climbing Cleveland Center
01:37PM 40.2022 -79.1722 101° East 114 131 7,000 660 Climbing Cleveland Center
01:38PM 40.3181 -79.0940 80° East  Level Estimated
01:38PM 40.2122 -79.1286 73° East 133 153 7,500  Level Cleveland Center
01:39PM 40.2219 -79.0794 75° East 145 167 7,900 300 Climbing Cleveland Center
01:40PM 40.2336 -79.0275 74° East 143 165 8,200 240 Climbing Cleveland Center
01:41PM 40.2414 -78.9783 78° East 132 152 8,400  Climbing Cleveland Center
01:42PM 40.2469 -78.9211 83° East 164 189 8,300 -120 Descending Cleveland Center
01:43PM 40.2503 -78.8639 86° East 160 184 8,200  Descending Cleveland Center
01:44PM 40.2431 -78.8097 100° East 150 173 8,300  Climbing Cleveland Center
01:45PM 40.2278 -78.7583 111° Southeast 150 173 8,300  Level Cleveland Center
01:46PM 40.2164 -78.7044 105° East 154 177 8,300 -480 Level Cleveland Center
01:47PM 40.2278 -78.6389 77° East 180 207 7,400 -900 Descending Cleveland Center
01:48PM 40.2331 -78.5761 84° East 177 204 6,500 -840 Descending Cleveland Center
01:49PM 40.2403 -78.5161 81° East 172 198 5,800 -600 Descending Cleveland Center
01:50PM 40.2369 -78.4564 94° East 164 189 5,400 -300 Descending Cleveland Center
01:51PM 40.2317 -78.3967 97° East 148 170 5,300  Descending Cleveland Center
01:52PM 40.2244 -78.3478 101° East 138 159 5,400  Climbing Cleveland Center
01:53PM 40.2233 -78.2936 92° East 148 170 5,400 -60 Level Cleveland Center
01:54PM 40.2206 -78.2472 94° East 152 175 5,300 -60 Descending Cleveland Center
01:55PM 40.2256 -78.1956 83° East 156 180 5,300  Level Cleveland Center
01:56PM 40.2328 -78.1381 81° East 155 178 5,400 60 Climbing Cleveland Center
01:57PM 40.2253 -78.0814 100° East 151 174 5,500 60 Climbing Cleveland Center
01:58PM 40.2197 -78.0272 98° East 150 173 5,600 -60 Climbing Cleveland Center
02:00PM 40.2456 -77.9553 65° Northeast  Level FlightAware Approximate
02:07PM 40.3319 -77.5877 76° East  Level FlightAware Approximate
02:08PM 40.3415 -77.5349 76° East  Level FlightAware Approximate
02:09PM 40.3512 -77.4821 76° East  Level FlightAware Approximate
02:10PM 40.3609 -77.4293 77° East  Level FlightAware Approximate
02:11PM 40.3705 -77.3764 77° East  Level FlightAware Approximate
02:12PM 40.3801 -77.3236 77° East  Level FlightAware Approximate
02:13PM 40.3892 -77.2709 77° East  Level FlightAware Approximate
02:14PM 40.3983 -77.2182 77° East  Level FlightAware Approximate
02:15PM 40.4074 -77.1656 77° East  Level FlightAware Approximate
02:16PM 40.4164 -77.1128 77° East  Level FlightAware Approximate
02:17PM 40.4255 -77.0601 77° East  Level FlightAware Approximate
02:18PM 40.4345 -77.0074 77° East  Level FlightAware Approximate
02:19PM 40.4435 -76.9546 77° East  Level FlightAware Approximate
02:20PM 40.4524 -76.9019 77° East  Level FlightAware Approximate
02:21PM 40.4613 -76.8491 77° East  Level FlightAware Approximate
02:22PM 40.4702 -76.7963 77° East  Level FlightAware Approximate
02:23PM 40.4791 -76.7435 78° East  Level FlightAware Approximate
02:24PM 40.4880 -76.6907 78° East  Level FlightAware Approximate
02:25PM 40.4968 -76.6379 78° East  Level FlightAware Approximate
02:26PM 40.5056 -76.5850 78° East  Level FlightAware Approximate
02:27PM 40.5144 -76.5322 78° East  Level FlightAware Approximate
02:28PM 40.5232 -76.4793 78° East  Level FlightAware Approximate
02:29PM 40.5320 -76.4264 78° East  Level FlightAware Approximate
02:30PM 40.5407 -76.3735 78° East  Level FlightAware Approximate
02:31PM 40.5494 -76.3206 78° East  Level FlightAware Approximate
02:32PM 40.5582 -76.2678 77° East  Level FlightAware Approximate
02:33PM 40.5671 -76.2149 78° East  Level FlightAware Approximate
02:34PM 40.5760 -76.1620 78° East  Level FlightAware Approximate
02:35PM 40.5848 -76.1091 78° East  Level FlightAware Approximate
02:36PM 40.5936 -76.0562 78° East  Level FlightAware Approximate
02:37PM 40.6024 -76.0032 78° East  Level FlightAware Approximate
02:38PM 40.6111 -75.9503 78° East  Level FlightAware Approximate
02:39PM 40.6197 -75.8973 78° East  Level FlightAware Approximate
02:40PM 40.6278 -75.8442 78° East  Level FlightAware Approximate
02:41PM 40.6360 -75.7910 79° East  Level FlightAware Approximate
02:42PM 40.6442 -75.7379 79° East  Level FlightAware Approximate
02:43PM 40.6523 -75.6847 79° East  Level FlightAware Approximate
02:44PM 40.6604 -75.6316 79° East  Level FlightAware Approximate
02:45PM 40.6684 -75.5784 79° East  Level FlightAware Approximate
02:46PM 40.6765 -75.5252 79° East  Level FlightAware Approximate
02:47PM 40.6845 -75.4720 79° East  Level FlightAware Approximate
02:48PM 40.6925 -75.4188 79° East  Level FlightAware Approximate
02:49PM 40.7005 -75.3655 79° East  Level FlightAware Approximate
02:50PM 40.7084 -75.3123 79° East  Level FlightAware Approximate
02:51PM 40.7164 -75.2590 79° East  Level FlightAware Approximate
02:52PM 40.7243 -75.2058 79° East  Level FlightAware Approximate
02:53PM 40.7321 -75.1525 79° East  Level FlightAware Approximate
02:54PM 40.7400 -75.0992 79° East  Level FlightAware Approximate
02:55PM 40.7478 -75.0459 79° East  Level FlightAware Approximate
02:56PM 40.7556 -74.9926 79° East  Level FlightAware Approximate
02:56PM 40.7000 -75.1000 79° East 153 176 3,800  Level New York TRACON
02:57PM 40.7634 -74.9392 79° East  Level FlightAware Approximate
02:57PM 40.7167 -75.0500 66° East 151 174 3,700  Level New York TRACON
02:58PM 40.7711 -74.8859 79° East  Level FlightAware Approximate
02:58PM 40.7333 -75.0000 66° East 149 171 3,700  Level New York TRACON
02:59PM 40.7788 -74.8325 79° East  Level FlightAware Approximate
02:59PM 40.7333 -74.9500 90° East 155 178 3,500  Level New York TRACON
03:00PM 40.7865 -74.7792 79° East  Level FlightAware Approximate
03:00PM 40.7500 -74.8833 72° East 159 183 3,100  Level New York TRACON
03:01PM 40.7942 -74.7258 79° East  Level FlightAware Approximate
03:01PM 40.7667 -74.8333 66° East 148 170 3,000  Level New York TRACON
03:02PM 40.7833 -74.7833 66° East 145 167 3,000  Level New York TRACON
03:03PM 40.8000 -74.7333 66° East 141 162 3,000 -60 Level New York TRACON
03:04PM 40.8167 -74.7000 57° Northeast 147 169 2,900 -240 Descending New York TRACON
03:05PM 40.8333 -74.6500 66° East 153 176 2,600 -180 Descending New York TRACON
03:06PM 40.8500 -74.6000 66° East 144 166 2,600 -120 Level New York TRACON
03:07PM 40.8667 -74.5500 66° East 149 171 2,400 -60 Descending New York TRACON
03:08PM 40.8667 -74.5000 90° East 138 159 2,500  Climbing New York TRACON
03:09PM 40.8667 -74.4500 90° East 135 155 2,500  Level New York TRACON
03:10PM 40.8833 -74.4000 66° East 137 158 2,500 -360 Level New York TRACON
03:11PM 40.8833 -74.3500 90° East 145 167 1,900 -660 Descending New York TRACON
03:12PM 40.9000 -74.3000 66° East 126 145 1,200 -660 Descending New York TRACON
03:14PM 40.8752 -74.2814 78° East  Level Estimated
03:21PM 40.8752 -74.2814 78° East  Level Estimated